Time;durP1;ratioP1;P1;durP2;ratioP2;P2;SDS_P1;SDS_P2;PMS_P1;PMS_P2;Temp;Humidity;BMP_temperature;BMP_pressure;BME280_temperature;BME280_humidity;BME280_pressure;Samples;Min_cycle;Max_cycle;Signal;HPM_P1;HPM_P2
2021/10/20 00:01:11;;;;;;;17.77;11.73;;;;;;;15.45;80.62;100852.94;5065046;28;20037;-48
2021/10/20 00:03:36;;;;;;;18.08;11.57;;;;;;;15.45;80.48;100852.13;5054083;28;20021;-46
2021/10/20 00:06:01;;;;;;;19.42;11.90;;;;;;;15.41;80.47;100851.72;5055338;28;20174;-47
2021/10/20 00:08:27;;;;;;;18.08;10.93;;;;;;;15.41;80.46;100840.06;5073813;28;20393;-48
2021/10/20 00:10:52;;;;;;;16.17;10.45;;;;;;;15.38;80.46;100835.91;5073937;28;20035;-47
2021/10/20 00:13:18;;;;;;;18.52;11.32;;;;;;;15.38;79.89;100825.03;5073663;28;20032;-46
2021/10/20 00:15:44;;;;;;;16.58;11.00;;;;;;;15.39;80.13;100821.28;5073840;28;20077;-48
2021/10/20 00:18:10;;;;;;;14.98;10.15;;;;;;;15.36;79.94;100819.00;5054433;28;20036;-49
2021/10/20 00:20:35;;;;;;;20.23;11.50;;;;;;;15.37;79.87;100816.06;5053679;28;20033;-47
2021/10/20 00:23:01;;;;;;;20.08;11.00;;;;;;;15.41;79.18;100810.22;5053622;28;20029;-50
2021/10/20 00:25:26;;;;;;;16.40;10.95;;;;;;;15.41;79.34;100812.94;5053620;28;20055;-50
2021/10/20 00:27:51;;;;;;;21.38;10.63;;;;;;;15.43;79.01;100814.38;5069555;28;20085;-48
2021/10/20 00:30:18;;;;;;;18.10;11.25;;;;;;;15.43;78.82;100799.97;5073476;28;20136;-49
2021/10/20 00:32:44;;;;;;;17.73;10.40;;;;;;;15.45;78.47;100793.28;5073414;28;20032;-45
2021/10/20 00:35:09;;;;;;;14.50;10.38;;;;;;;15.47;78.65;100791.19;5073364;28;20020;-49
2021/10/20 00:37:35;;;;;;;15.13;10.30;;;;;;;15.46;78.54;100788.72;5058965;28;20480;-45
2021/10/20 00:40:00;;;;;;;18.15;10.50;;;;;;;15.42;78.46;100787.47;5052028;28;20070;-50
2021/10/20 00:42:26;;;;;;;18.02;10.27;;;;;;;15.41;78.41;100797.50;5069967;28;20534;-47
2021/10/20 00:44:54;;;;;;;25.50;11.48;;;;;;;15.41;78.51;100805.63;5073139;28;20566;-48
2021/10/20 00:47:21;;;;;;;17.55;10.27;;;;;;;15.40;78.19;100805.81;5061573;28;20434;-47
2021/10/20 00:49:47;;;;;;;18.88;11.35;;;;;;;15.40;78.32;100795.81;5053016;28;20116;-50
2021/10/20 00:52:12;;;;;;;22.70;10.57;;;;;;;15.39;78.28;100799.56;5053169;28;20029;-47
2021/10/20 00:54:38;;;;;;;19.42;10.90;;;;;;;15.37;78.31;100796.25;5064985;28;20024;-49
2021/10/20 00:57:05;;;;;;;17.75;10.85;;;;;;;15.37;78.20;100779.97;5072218;28;20556;-49
2021/10/20 00:59:32;;;;;;;20.75;10.68;;;;;;;15.36;78.49;100791.88;5071707;28;20383;-49
2021/10/20 01:01:57;;;;;;;21.27;10.90;;;;;;;15.35;78.31;100771.25;5056049;28;20028;-48
2021/10/20 01:04:23;;;;;;;17.20;10.18;;;;;;;15.37;77.89;100752.84;5053165;28;20036;-49
2021/10/20 01:06:48;;;;;;;22.48;11.38;;;;;;;15.39;77.67;100756.19;5056788;28;20024;-47
2021/10/20 01:09:13;;;;;;;17.73;10.77;;;;;;;15.44;77.26;100753.66;5072629;28;20042;-47
2021/10/20 01:11:39;;;;;;;22.13;12.05;;;;;;;15.42;77.24;100755.75;5071532;28;20024;-49
2021/10/20 01:14:04;;;;;;;19.88;11.15;;;;;;;15.40;77.33;100763.25;5071436;28;20028;-46
2021/10/20 01:16:29;;;;;;;21.90;11.48;;;;;;;15.43;77.07;100768.28;5072699;28;20065;-50
2021/10/20 01:18:55;;;;;;;22.13;11.45;;;;;;;15.44;76.97;100760.97;5053671;28;20174;-47
2021/10/20 01:21:20;;;;;;;20.15;11.32;;;;;;;15.47;76.40;100757.81;5052593;28;20147;-49
2021/10/20 01:23:49;;;;;;;22.58;12.13;;;;;;;15.45;76.36;100766.16;5052012;28;20036;-50
2021/10/20 01:26:15;;;;;;;19.75;11.05;;;;;;;15.47;76.56;100755.09;5053060;28;20045;-46
2021/10/20 01:28:41;;;;;;;19.98;11.45;;;;;;;15.49;76.37;100751.13;5072143;28;20033;-46
2021/10/20 01:31:06;;;;;;;19.65;10.93;;;;;;;15.51;75.93;100754.47;5072750;28;20032;-46
2021/10/20 01:33:32;;;;;;;23.65;12.20;;;;;;;15.50;76.19;100746.53;5072627;28;20481;-45
2021/10/20 01:35:57;;;;;;;19.52;11.80;;;;;;;15.48;76.02;100749.47;5072566;28;20137;-47
2021/10/20 01:38:22;;;;;;;22.67;12.43;;;;;;;15.51;75.62;100746.34;5054258;28;20058;-49
2021/10/20 01:40:48;;;;;;;23.52;12.40;;;;;;;15.56;75.39;100753.78;5053453;28;20031;-47
2021/10/20 01:43:13;;;;;;;20.52;12.68;;;;;;;15.64;74.81;100741.88;5052310;28;20044;-47
2021/10/20 01:45:38;;;;;;;21.17;11.98;;;;;;;15.63;74.88;100748.34;5052380;28;20096;-47
2021/10/20 01:48:04;;;;;;;20.98;12.88;;;;;;;15.60;74.93;100733.34;5052513;28;20040;-45
2021/10/20 01:50:30;;;;;;;20.02;12.07;;;;;;;15.64;74.63;100739.16;5065114;28;20036;-47
2021/10/20 01:52:55;;;;;;;24.92;11.95;;;;;;;15.63;75.01;100730.19;5072290;28;20111;-46
2021/10/20 01:55:20;;;;;;;20.33;11.85;;;;;;;15.66;74.39;100718.06;5072176;28;20037;-46
2021/10/20 01:57:46;;;;;;;25.38;12.85;;;;;;;15.66;74.33;100696.38;5072341;28;20021;-46
2021/10/20 02:00:12;;;;;;;23.52;13.25;;;;;;;15.68;74.06;100696.97;5069297;28;20024;-45
2021/10/20 02:02:38;;;;;;;26.63;13.10;;;;;;;15.67;73.99;100706.19;5052284;28;20033;-47
2021/10/20 02:05:08;;;;;;;18.10;12.50;;;;;;;15.68;73.90;100696.97;5052773;28;20029;-47
2021/10/20 02:07:34;;;;;;;20.48;12.27;;;;;;;15.65;73.78;100700.97;5082665;28;20040;-46
2021/10/20 02:09:59;;;;;;;18.77;11.38;;;;;;;15.66;73.59;100688.22;5063421;28;20025;-46
2021/10/20 02:12:25;;;;;;;21.88;13.27;;;;;;;15.65;73.61;100695.53;5052246;28;20107;-46
2021/10/20 02:14:50;;;;;;;19.58;12.30;;;;;;;15.63;73.59;100678.63;5051971;28;20486;-46
2021/10/20 02:17:15;;;;;;;20.70;12.75;;;;;;;15.63;73.57;100683.25;5052014;28;20037;-48
2021/10/20 02:19:41;;;;;;;24.10;13.05;;;;;;;15.61;73.88;100679.91;5062793;28;20538;-47
2021/10/20 02:22:06;;;;;;;26.38;13.93;;;;;;;15.56;73.86;100667.84;5071924;28;20107;-47
2021/10/20 02:24:32;;;;;;;21.45;13.50;;;;;;;15.54;74.11;100671.84;5072152;28;20036;-47
2021/10/20 02:26:57;;;;;;;21.20;13.40;;;;;;;15.52;73.55;100658.47;5072040;28;20364;-48
2021/10/20 02:29:22;;;;;;;20.05;13.07;;;;;;;15.51;73.76;100658.72;5071314;28;20060;-47
2021/10/20 02:31:48;;;;;;;31.42;13.13;;;;;;;15.47;73.98;100666.44;5071979;28;20032;-49
2021/10/20 02:34:18;;;;;;;21.02;13.70;;;;;;;15.42;74.33;100652.69;5071971;28;20025;-48
2021/10/20 02:36:43;;;;;;;26.75;13.82;;;;;;;15.41;73.93;100661.91;5073269;28;20414;-47
2021/10/20 02:39:09;;;;;;;20.45;13.15;;;;;;;15.40;74.08;100653.97;5074389;28;20048;-49
2021/10/20 02:41:35;;;;;;;26.60;14.15;;;;;;;15.38;74.33;100648.78;5055593;28;20472;-48
2021/10/20 02:44:00;;;;;;;26.35;13.35;;;;;;;15.36;74.19;100648.97;5055606;28;20053;-50
2021/10/20 02:46:25;;;;;;;23.58;12.82;;;;;;;15.31;74.65;100639.84;5055673;28;20593;-47
2021/10/20 02:48:51;;;;;;;22.40;13.88;;;;;;;15.31;74.65;100639.84;5055589;28;20392;-47
2021/10/20 02:51:16;;;;;;;20.25;13.15;;;;;;;15.26;74.90;100631.53;5073196;28;20491;-49
2021/10/20 02:53:42;;;;;;;20.80;12.85;;;;;;;15.24;74.66;100625.50;5075453;28;20412;-47
2021/10/20 02:56:07;;;;;;;24.05;13.52;;;;;;;15.24;74.40;100615.47;5075362;28;20029;-46
2021/10/20 02:58:32;;;;;;;23.40;13.65;;;;;;;15.23;74.28;100615.72;5074961;28;20021;-47
2021/10/20 03:00:58;;;;;;;21.52;13.73;;;;;;;15.25;74.17;100602.78;5067374;28;20021;-49
2021/10/20 03:03:23;;;;;;;25.73;15.07;;;;;;;15.32;73.51;100611.66;5055304;28;20435;-50
2021/10/20 03:05:48;;;;;;;28.38;14.68;;;;;;;15.35;73.45;100616.69;5055154;28;20025;-47
2021/10/20 03:08:14;;;;;;;24.40;14.23;;;;;;;15.37;73.27;100601.00;5055361;28;20033;-46
2021/10/20 03:10:40;;;;;;;27.70;14.35;;;;;;;15.39;73.15;100604.31;5055290;28;20116;-46
2021/10/20 03:13:05;;;;;;;23.20;13.20;;;;;;;15.43;72.82;100602.84;5055080;28;20048;-48
2021/10/20 03:15:30;;;;;;;24.95;14.38;;;;;;;15.41;73.02;100602.22;5055052;28;20025;-47
2021/10/20 03:17:55;;;;;;;22.50;14.80;;;;;;;15.41;72.76;100599.53;5054896;28;20029;-47
2021/10/20 03:20:21;;;;;;;24.35;13.95;;;;;;;15.42;72.90;100587.63;5067656;28;20059;-48
2021/10/20 03:22:46;;;;;;;21.23;14.40;;;;;;;15.43;72.92;100597.44;5074981;28;20058;-50
2021/10/20 03:25:13;;;;;;;25.27;14.85;;;;;;;15.48;72.25;100596.75;5074784;28;20024;-47
2021/10/20 03:27:47;;;;;;;24.98;15.15;;;;;;;15.50;71.99;100600.06;5074882;28;20052;-48
2021/10/20 03:30:14;;;;;;;25.88;14.77;;;;;;;15.51;71.89;100586.31;5062544;28;20470;-46
2021/10/20 03:32:39;;;;;;;24.47;15.40;;;;;;;15.50;71.75;100587.34;5054715;28;20032;-47
2021/10/20 03:35:06;;;;;;;24.55;14.68;;;;;;;15.51;72.00;100586.31;5054532;28;20162;-46
2021/10/20 03:37:31;;;;;;;34.97;15.88;;;;;;;15.51;71.91;100589.03;5054702;28;20024;-49
2021/10/20 03:39:57;;;;;;;23.10;14.40;;;;;;;15.51;72.05;100585.47;5063865;28;20023;-48
2021/10/20 03:42:22;;;;;;;27.23;14.30;;;;;;;15.51;72.25;100574.63;5073444;28;20025;-46
2021/10/20 03:44:48;;;;;;;25.50;15.50;;;;;;;15.51;72.18;100575.47;5074580;28;20514;-49
2021/10/20 03:47:13;;;;;;;23.50;14.55;;;;;;;15.49;72.40;100584.88;5074093;28;20025;-47
2021/10/20 03:49:39;;;;;;;26.88;15.77;;;;;;;15.45;72.87;100579.03;5068132;28;20029;-47
2021/10/20 03:52:04;;;;;;;26.17;14.27;;;;;;;15.42;73.02;100578.66;5054404;28;20380;-48
2021/10/20 03:54:29;;;;;;;25.50;15.68;;;;;;;15.45;72.80;100559.22;5065358;28;20521;-48
2021/10/20 03:56:55;;;;;;;24.98;14.45;;;;;;;15.45;72.95;100542.94;5074218;28;20058;-48
2021/10/20 03:59:20;;;;;;;25.20;14.55;;;;;;;15.53;72.46;100548.94;5067156;28;20116;-47
2021/10/20 04:01:45;;;;;;;28.98;15.30;;;;;;;15.57;72.61;100558.28;5054452;28;20033;-47
2021/10/20 04:04:11;;;;;;;24.45;14.75;;;;;;;15.59;72.12;100539.91;5054097;28;20025;-47
2021/10/20 04:06:36;;;;;;;23.10;14.73;;;;;;;15.77;71.59;100541.88;5052747;28;20464;-46
2021/10/20 04:09:01;;;;;;;25.48;14.52;;;;;;;15.79;72.05;100542.47;5055150;28;20505;-47
2021/10/20 04:11:27;;;;;;;23.85;13.35;;;;;;;15.79;71.89;100538.91;5066917;28;20055;-47
2021/10/20 04:13:52;;;;;;;24.90;13.93;;;;;;;15.79;72.12;100531.59;5053865;28;20060;-49
2021/10/20 04:16:17;;;;;;;32.03;14.63;;;;;;;15.91;71.13;100548.00;5062930;28;20016;-49
2021/10/20 04:18:43;;;;;;;24.48;13.85;;;;;;;15.94;71.29;100542.09;5073491;28;20029;-46
2021/10/20 04:21:08;;;;;;;24.80;14.80;;;;;;;16.05;71.01;100523.41;5072761;28;20028;-47
2021/10/20 04:23:33;;;;;;;23.05;14.95;;;;;;;16.03;72.02;100529.06;5073450;28;20032;-45
2021/10/20 04:25:58;;;;;;;26.27;14.63;;;;;;;15.94;73.79;100531.25;5071525;28;20064;-48
2021/10/20 04:28:24;;;;;;;26.83;15.85;;;;;;;15.79;74.96;100528.06;5061569;28;20071;-47
2021/10/20 04:30:49;;;;;;;32.83;16.42;;;;;;;15.63;76.76;100515.88;5072735;28;20155;-46
2021/10/20 04:33:14;;;;;;;35.85;19.23;;;;;;;15.48;78.31;100518.94;5073279;28;20027;-48
2021/10/20 04:35:40;;;;;;;38.30;19.70;;;;;;;15.31;79.42;100515.13;5071236;28;20090;-48
2021/10/20 04:38:05;;;;;;;31.92;19.60;;;;;;;15.19;80.96;100517.69;5070437;28;20057;-56
2021/10/20 04:40:31;;;;;;;37.75;21.45;;;;;;;15.05;81.45;100514.25;5056337;28;20106;-52
2021/10/20 04:42:57;;;;;;;32.05;20.90;;;;;;;15.03;82.00;100527.19;5050263;28;20056;-52
2021/10/20 04:45:22;;;;;;;42.60;21.20;;;;;;;14.97;82.65;100522.66;5053883;28;20368;-55
2021/10/20 04:47:47;;;;;;;38.03;21.33;;;;;;;14.89;83.49;100525.63;5064740;28;20020;-47
2021/10/20 04:50:13;;;;;;;41.80;23.48;;;;;;;14.82;84.89;100522.13;5068943;28;20036;-50
2021/10/20 04:52:38;;;;;;;42.63;22.83;;;;;;;14.67;85.86;100515.13;5069118;28;20025;-49
2021/10/20 04:55:05;;;;;;;45.70;25.15;;;;;;;14.57;85.84;100525.59;5066758;28;20309;-53
2021/10/20 04:57:30;;;;;;;46.33;26.27;;;;;;;14.57;86.02;100514.78;5062116;28;20052;-52
2021/10/20 04:59:56;;;;;;;43.38;25.77;;;;;;;14.56;86.09;100507.72;5060912;28;20070;-48
2021/10/20 05:02:21;;;;;;;51.55;25.23;;;;;;;14.58;85.74;100504.78;5050681;28;20041;-49
2021/10/20 05:04:46;;;;;;;50.42;23.75;;;;;;;14.61;85.61;100504.31;5067799;28;20448;-46
2021/10/20 05:07:12;;;;;;;53.25;24.25;;;;;;;14.61;85.98;100505.19;5069596;28;20466;-49
2021/10/20 05:09:38;;;;;;;51.70;24.98;;;;;;;14.61;85.61;100499.78;5056060;28;20048;-48
2021/10/20 05:12:05;;;;;;;50.58;23.73;;;;;;;14.60;85.92;100498.09;5069605;28;20491;-47
2021/10/20 05:14:30;;;;;;;45.45;24.17;;;;;;;14.68;85.67;100489.69;5069572;28;20082;-49
2021/10/20 05:16:55;;;;;;;38.33;22.85;;;;;;;14.69;85.48;100485.09;5069217;28;20064;-50
2021/10/20 05:19:20;;;;;;;43.28;23.80;;;;;;;14.73;85.09;100483.63;5069758;28;20103;-47
2021/10/20 05:21:46;;;;;;;45.05;23.73;;;;;;;14.76;85.16;100474.25;5068841;28;20099;-46
2021/10/20 05:24:11;;;;;;;40.45;23.85;;;;;;;14.79;84.95;100466.50;5069165;28;20040;-45
2021/10/20 05:26:36;;;;;;;44.25;24.65;;;;;;;14.82;85.30;100465.22;5069315;28;20074;-46
2021/10/20 05:29:02;;;;;;;40.97;22.58;;;;;;;14.85;84.67;100456.66;5067315;28;20025;-47
2021/10/20 05:31:27;;;;;;;37.83;21.98;;;;;;;14.90;84.17;100449.56;5069300;28;20543;-45
2021/10/20 05:33:53;;;;;;;39.92;22.08;;;;;;;14.95;84.20;100450.75;5069346;28;20371;-46
2021/10/20 05:36:18;;;;;;;38.72;20.60;;;;;;;15.03;83.59;100454.03;5049845;28;20479;-46
2021/10/20 05:38:43;;;;;;;38.60;21.05;;;;;;;14.99;84.86;100431.16;5049893;28;20049;-47
2021/10/20 05:41:09;;;;;;;35.92;20.73;;;;;;;14.93;85.36;100438.28;5054532;28;20389;-55
2021/10/20 05:43:37;;;;;;;36.00;20.98;;;;;;;14.89;86.08;100433.50;5051942;28;20032;-55
2021/10/20 05:46:02;;;;;;;36.33;20.85;;;;;;;14.91;86.03;100390.78;5067548;28;20036;-50
2021/10/20 05:48:28;;;;;;;37.40;21.05;;;;;;;14.90;86.74;100410.78;5048355;28;20537;-47
2021/10/20 05:50:53;;;;;;;42.72;19.20;;;;;;;14.90;87.00;100399.94;5049146;28;20539;-47
2021/10/20 05:53:18;;;;;;;38.67;21.02;;;;;;;14.97;86.32;100416.16;5055145;28;20064;-47
2021/10/20 05:55:44;;;;;;;38.05;20.35;;;;;;;15.05;85.83;100396.91;5046211;28;20443;-44
2021/10/20 05:58:12;;;;;;;44.85;20.90;;;;;;;15.06;85.94;100382.28;5066912;28;20390;-46
2021/10/20 06:00:39;;;;;;;33.50;19.70;;;;;;;15.07;85.62;100379.38;5066113;28;20048;-47
2021/10/20 06:03:05;;;;;;;34.45;18.67;;;;;;;15.12;85.00;100382.25;5066412;28;20116;-45
2021/10/20 06:05:31;;;;;;;35.35;19.52;;;;;;;15.20;85.00;100399.28;5067796;28;20028;-47
2021/10/20 06:07:59;;;;;;;37.67;18.52;;;;;;;15.25;84.32;100385.88;5066181;28;20043;-45
2021/10/20 06:10:25;;;;;;;29.80;17.83;;;;;;;15.29;84.08;100392.50;5065257;28;20506;-46
2021/10/20 06:12:51;;;;;;;35.47;17.70;;;;;;;15.29;84.48;100384.38;5072352;28;20029;-45
2021/10/20 06:15:21;;;;;;;32.05;18.63;;;;;;;15.31;84.42;100379.56;5071395;28;20035;-47
2021/10/20 06:17:46;;;;;;;26.98;16.40;;;;;;;15.37;83.47;100382.19;5071066;28;20483;-46
2021/10/20 06:20:12;;;;;;;27.75;16.83;;;;;;;15.39;83.94;100373.84;5060415;28;20036;-46
2021/10/20 06:22:40;;;;;;;29.13;15.93;;;;;;;15.39;82.91;100379.25;5066852;28;20025;-48
2021/10/20 06:25:06;;;;;;;30.85;15.23;;;;;;;15.40;82.72;100367.34;5072556;28;20028;-50
2021/10/20 06:27:32;;;;;;;29.55;16.20;;;;;;;15.37;83.91;100405.75;5072530;28;20111;-47
2021/10/20 06:29:57;;;;;;;24.05;15.40;;;;;;;15.22;84.00;100365.47;5070922;28;20111;-47
2021/10/20 06:32:22;;;;;;;31.77;15.65;;;;;;;15.05;85.01;100359.78;5072725;28;20078;-53
2021/10/20 06:34:48;;;;;;;25.08;16.35;;;;;;;14.88;86.25;100354.13;5073043;28;20108;-53
2021/10/20 06:37:13;;;;;;;31.48;16.70;;;;;;;14.68;86.66;100365.09;5072506;28;20372;-54
2021/10/20 06:39:38;;;;;;;29.83;15.63;;;;;;;14.54;86.86;100368.97;5069443;28;20478;-52
2021/10/20 06:42:04;;;;;;;27.70;15.00;;;;;;;14.46;87.95;100371.94;5054982;28;20033;-53
2021/10/20 06:44:29;;;;;;;23.15;14.27;;;;;;;14.34;88.45;100362.84;5064182;28;20033;-52
2021/10/20 06:46:56;;;;;;;27.02;15.50;;;;;;;14.26;88.84;100350.38;5069176;28;20044;-53
2021/10/20 06:49:21;;;;;;;35.65;14.75;;;;;;;14.20;89.21;100335.84;5057456;28;20028;-54
2021/10/20 06:51:46;;;;;;;22.67;15.20;;;;;;;14.15;89.64;100316.75;5065358;28;20498;-54
2021/10/20 06:54:18;;;;;;;30.33;15.23;;;;;;;14.15;89.30;100305.91;5072254;28;20032;-56
2021/10/20 06:56:47;;;;;;;26.48;16.83;;;;;;;14.11;89.77;100288.44;5060449;28;20081;-55
2021/10/20 06:59:13;;;;;;;27.80;16.70;;;;;;;14.08;90.56;100275.34;5056229;28;20029;-54
2021/10/20 07:01:38;;;;;;;28.67;16.50;;;;;;;14.05;90.96;100278.50;5067087;28;20543;-55
2021/10/20 07:04:04;;;;;;;36.92;17.30;;;;;;;14.10;90.73;100275.97;5065105;28;20472;-57
2021/10/20 07:06:29;;;;;;;27.88;17.20;;;;;;;14.13;90.99;100272.81;5064437;28;20522;-53
2021/10/20 07:08:58;;;;;;;28.92;16.27;;;;;;;14.13;90.72;100267.41;5073385;28;20032;-53
2021/10/20 07:11:23;;;;;;;28.80;16.38;;;;;;;14.14;90.73;100236.59;5074894;28;20031;-54
2021/10/20 07:13:49;;;;;;;34.22;16.45;;;;;;;14.12;90.64;100219.75;5074688;28;20024;-53
2021/10/20 07:16:16;;;;;;;29.50;17.05;;;;;;;14.11;90.93;100206.44;5059611;28;20021;-53
2021/10/20 07:18:41;;;;;;;29.33;17.05;;;;;;;14.07;91.46;100205.25;5063232;28;20032;-49
2021/10/20 07:21:06;;;;;;;34.13;16.75;;;;;;;14.02;91.38;100195.06;5058555;28;20040;-51
2021/10/20 07:23:32;;;;;;;26.77;16.77;;;;;;;14.04;91.53;100210.03;5066961;28;20025;-48
2021/10/20 07:25:57;;;;;;;29.17;16.98;;;;;;;14.07;91.16;100195.22;5064086;28;20577;-49
2021/10/20 07:28:23;;;;;;;28.27;16.20;;;;;;;14.12;91.27;100184.56;5074214;28;20024;-47
2021/10/20 07:30:48;;;;;;;25.25;16.23;;;;;;;14.10;91.44;100194.78;5074984;28;20082;-47
2021/10/20 07:33:13;;;;;;;32.17;17.30;;;;;;;14.10;91.84;100204.78;5074932;28;20020;-47
2021/10/20 07:35:39;;;;;;;31.23;17.30;;;;;;;14.09;91.92;100201.25;5074705;28;20027;-48
2021/10/20 07:38:04;;;;;;;31.92;17.35;;;;;;;14.13;91.20;100216.00;5073893;28;20052;-49
2021/10/20 07:40:29;;;;;;;31.92;17.17;;;;;;;14.16;91.86;100223.66;5056421;28;20032;-46
2021/10/20 07:42:55;;;;;;;33.67;17.67;;;;;;;14.18;91.32;100218.03;5053352;28;20032;-47
2021/10/20 07:45:20;;;;;;;33.00;16.23;;;;;;;14.22;91.23;100230.91;5065385;28;20029;-48
2021/10/20 07:47:49;;;;;;;28.20;16.55;;;;;;;14.27;91.70;100246.50;5054126;28;20041;-49
2021/10/20 07:50:16;;;;;;;29.33;15.73;;;;;;;14.35;91.01;100256.19;5059326;28;20379;-48
2021/10/20 07:52:47;;;;;;;26.95;16.08;;;;;;;14.46;89.68;100263.63;5053622;28;20398;-47
2021/10/20 07:55:14;;;;;;;26.02;15.38;;;;;;;14.50;89.13;100276.47;5074125;28;20062;-46
2021/10/20 07:57:40;;;;;;;28.45;15.68;;;;;;;14.51;89.28;100266.50;5073146;28;20032;-48
2021/10/20 08:00:08;;;;;;;26.35;15.05;;;;;;;14.50;89.19;100272.94;5073961;28;20033;-49
2021/10/20 08:02:33;;;;;;;34.70;16.13;;;;;;;14.52;89.04;100262.72;5073822;28;20131;-47
2021/10/20 08:04:58;;;;;;;33.88;16.15;;;;;;;14.56;88.85;100273.97;5073987;28;20471;-48
2021/10/20 08:07:24;;;;;;;27.98;15.60;;;;;;;14.60;88.93;100242.69;5065530;28;20048;-49
2021/10/20 08:09:49;;;;;;;23.35;14.25;;;;;;;14.69;88.20;100258.44;5067937;28;20071;-47
2021/10/20 08:12:17;;;;;;;22.85;13.52;;;;;;;14.73;87.76;100275.06;5063203;28;20025;-47
2021/10/20 08:14:43;;;;;;;28.52;15.30;;;;;;;14.75;87.79;100239.66;5053836;28;20082;-49
2021/10/20 08:17:09;;;;;;;27.23;14.50;;;;;;;14.82;87.84;100245.78;5058518;28;20425;-48
2021/10/20 08:19:34;;;;;;;23.90;13.65;;;;;;;14.90;86.69;100249.06;5067571;28;20033;-48
2021/10/20 08:22:00;;;;;;;23.65;14.90;;;;;;;14.90;87.15;100243.63;5053678;28;20119;-47
2021/10/20 08:24:25;;;;;;;24.73;14.10;;;;;;;15.02;86.64;100249.13;5053476;28;20384;-48
2021/10/20 08:26:51;;;;;;;22.17;12.75;;;;;;;15.21;85.45;100255.38;5072332;28;20020;-48
2021/10/20 08:29:16;;;;;;;20.83;13.27;;;;;;;15.28;85.67;100230.91;5076936;28;20031;-48
2021/10/20 08:31:42;;;;;;;23.05;13.65;;;;;;;15.34;85.42;100238.09;5073420;28;20020;-45
2021/10/20 08:34:07;;;;;;;23.77;13.63;;;;;;;15.52;84.80;100221.81;5059430;28;20159;-46
2021/10/20 08:36:32;;;;;;;22.42;13.73;;;;;;;15.69;84.22;100218.47;5065344;28;20028;-46
2021/10/20 08:38:58;;;;;;;23.23;12.98;;;;;;;15.89;83.41;100208.16;5059921;28;20040;-47
2021/10/20 08:41:24;;;;;;;20.05;12.18;;;;;;;16.32;81.87;100201.59;5057307;28;20080;-48
2021/10/20 08:43:49;;;;;;;22.67;12.02;;;;;;;16.68;80.59;100210.56;5061266;28;20108;-47
2021/10/20 08:46:20;;;;;;;20.40;11.70;;;;;;;16.92;78.91;100211.41;5066635;28;20554;-48
2021/10/20 08:48:46;;;;;;;15.65;10.85;;;;;;;16.93;78.72;100214.94;5058222;28;20032;-49
2021/10/20 08:51:11;;;;;;;18.77;11.43;;;;;;;16.81;79.38;100223.94;5073185;28;20021;-47
2021/10/20 08:53:37;;;;;;;18.00;11.70;;;;;;;16.77;79.78;100214.63;5073123;28;20086;-48
2021/10/20 08:56:04;;;;;;;16.85;12.07;;;;;;;16.68;79.40;100221.44;5071086;28;20135;-47
2021/10/20 08:58:30;;;;;;;22.95;11.25;;;;;;;16.70;79.08;100205.75;5041561;28;20136;-51
2021/10/20 09:00:55;;;;;;;21.00;11.27;;;;;;;16.70;80.20;100196.75;5068417;28;20024;-47
2021/10/20 09:03:20;;;;;;;19.58;11.82;;;;;;;16.50;79.90;100203.38;5072822;28;20067;-48
2021/10/20 09:05:46;;;;;;;16.77;11.50;;;;;;;16.33;80.87;100211.41;5072862;28;20017;-50
2021/10/20 09:08:11;;;;;;;16.70;12.23;;;;;;;16.18;81.36;100184.72;5058460;28;20069;-49
2021/10/20 09:10:36;;;;;;;18.65;12.05;;;;;;;16.18;81.90;100189.31;5071871;28;20033;-47
2021/10/20 09:13:02;;;;;;;19.25;12.13;;;;;;;16.12;81.59;100173.97;5072649;28;20032;-46
2021/10/20 09:15:30;;;;;;;23.10;12.05;;;;;;;16.07;82.24;100182.00;5072434;28;20115;-48
2021/10/20 09:17:55;;;;;;;;;;;;;;;16.00;82.44;100187.53;5058274;28;20039;-47
2021/10/20 09:20:41;;;;;;;21.65;12.30;;;;;;;15.97;82.63;100177.97;5070109;28;19916;-47
2021/10/20 09:23:08;;;;;;;19.08;12.48;;;;;;;15.97;82.32;100193.44;5072290;28;20098;-49
2021/10/20 09:25:44;;;;;;;20.23;11.43;;;;;;;16.00;82.22;100185.63;5071743;28;20028;-47
2021/10/20 09:28:33;;;;;;;18.35;11.63;;;;;;;15.99;82.44;100186.69;5058378;28;20412;-47
2021/10/20 09:31:03;;;;;;;18.20;12.13;;;;;;;15.94;82.29;100183.88;5059911;28;20089;-46
2021/10/20 09:33:32;;;;;;;18.10;10.73;;;;;;;15.94;82.38;100178.44;5065797;28;20033;-47
2021/10/20 09:36:07;;;;;;;18.80;11.40;;;;;;;15.94;82.21;100200.16;5071422;28;20115;-47
2021/10/20 09:38:34;;;;;;;15.55;10.18;;;;;;;16.00;82.28;100182.09;5053066;28;20045;-47
2021/10/20 09:41:03;;;;;;;17.02;10.93;;;;;;;16.04;81.92;100182.47;5052459;28;20479;-49
2021/10/20 09:43:29;;;;;;;18.23;10.95;;;;;;;16.09;81.95;100183.41;5051980;28;20021;-49
2021/10/20 09:45:55;;;;;;;21.38;10.52;;;;;;;16.12;81.87;100176.69;5051721;28;20025;-46
2021/10/20 09:48:22;;;;;;;19.38;10.68;;;;;;;16.12;81.73;100191.09;5056169;28;20017;-46
2021/10/20 09:51:08;;;;;;;16.98;10.77;;;;;;;16.12;81.78;100179.41;5072024;28;20024;-47
2021/10/20 09:53:39;;;;;;;22.52;11.52;;;;;;;16.11;81.87;100199.47;5062833;28;20123;-47
2021/10/20 09:56:19;;;;;;;18.38;9.80;;;;;;;16.16;81.76;100211.25;5052230;28;20061;-47
2021/10/20 09:58:46;;;;;;;18.10;10.63;;;;;;;16.23;81.76;100192.97;5036513;28;20029;-48
2021/10/20 10:01:21;;;;;;;19.17;10.73;;;;;;;16.32;81.49;100184.47;5060456;28;20043;-50
2021/10/20 10:03:47;;;;;;;18.85;9.93;;;;;;;16.41;80.77;100183.91;5071908;28;20025;-50
2021/10/20 10:06:13;;;;;;;17.50;9.98;;;;;;;16.56;80.41;100152.69;5069436;28;20072;-47
2021/10/20 10:08:38;;;;;;;19.02;9.85;;;;;;;16.69;79.69;100179.63;5045687;28;20048;-48
2021/10/20 10:11:03;;;;;;;14.55;8.50;;;;;;;16.77;79.91;100178.41;5056975;28;20383;-49
2021/10/20 10:13:32;;;;;;;16.95;8.50;;;;;;;16.81;79.20;100180.47;5066336;28;20463;-48
2021/10/20 10:15:59;;;;;;;21.70;8.82;;;;;;;16.91;79.02;100168.16;5057518;28;20065;-47
2021/10/20 10:18:25;;;;;;;22.85;7.90;;;;;;;16.97;79.15;100186.22;5064366;28;20027;-49
2021/10/20 10:20:50;;;;;;;25.65;8.45;;;;;;;17.06;77.97;100165.75;5068110;28;20341;-50
2021/10/20 10:23:20;;;;;;;19.83;8.63;;;;;;;17.09;77.75;100181.59;5057309;28;20552;-48
2021/10/20 10:25:45;;;;;;;18.42;7.85;;;;;;;17.13;77.65;100185.47;5070815;28;20036;-48
2021/10/20 10:28:26;;;;;;;21.88;8.80;;;;;;;17.07;77.94;100186.44;5071720;28;20438;-46
2021/10/20 10:30:57;;;;;;;14.70;8.30;;;;;;;17.05;78.32;100185.84;5059967;28;20518;-50
2021/10/20 10:33:26;;;;;;;28.17;8.18;;;;;;;16.90;77.90;100175.47;5052817;28;20119;-49
2021/10/20 10:36:14;;;;;;;19.95;8.88;;;;;;;16.83;78.57;100191.94;5059031;28;20394;-49
2021/10/20 10:38:48;;;;;;;19.27;8.20;;;;;;;16.79;78.55;100174.44;5071250;28;20057;-50
2021/10/20 10:41:19;;;;;;;18.63;7.93;;;;;;;16.78;78.16;100174.69;5071658;28;20021;-50
2021/10/20 10:44:07;;;;;;;21.42;8.73;;;;;;;16.73;78.62;100167.22;5071433;28;20031;-51
2021/10/20 10:46:41;;;;;;;18.17;8.18;;;;;;;16.70;78.94;100167.69;5071629;28;20090;-48
2021/10/20 10:49:28;;;;;;;20.50;8.05;;;;;;;16.68;79.00;100183.41;5070188;28;20048;-48
2021/10/20 10:52:20;;;;;;;27.95;7.90;;;;;;;16.71;79.12;100172.06;5069603;28;20376;-51
2021/10/20 10:54:53;;;;;;;18.10;8.52;;;;;;;16.67;79.11;100169.00;5069151;28;20494;-48
2021/10/20 10:57:18;;;;;;;22.60;8.55;;;;;;;16.63;79.52;100175.97;5050881;28;20029;-49
2021/10/20 11:00:04;;;;;;;18.73;7.80;;;;;;;16.66;79.10;100174.66;5064597;28;20025;-47
2021/10/20 11:02:59;;;;;;;20.33;7.72;;;;;;;16.77;78.60;100160.28;5061424;28;20041;-50
2021/10/20 11:05:32;;;;;;;19.20;7.88;;;;;;;16.76;78.13;100145.00;5056038;28;20104;-43
2021/10/20 11:08:04;;;;;;;28.02;8.75;;;;;;;16.77;78.11;100165.72;5047523;28;20024;-48